sensor_id;sensor_type;location;lat;lon;timestamp;pressure;altitude;pressure_sealevel;temperature;humidity
70015;BME280;57358;51.094;6.760;2023-03-14T00:01:17;98541.44;;;8.44;100.00
70015;BME280;57358;51.094;6.760;2023-03-14T00:03:55;98374.97;;;7.67;100.00
70015;BME280;57358;51.094;6.760;2023-03-14T00:06:24;98057.34;;;5.78;100.00
70015;BME280;57358;51.094;6.760;2023-03-14T00:09:28;98003.22;;;5.48;100.00
70015;BME280;57358;51.094;6.760;2023-03-14T00:11:56;97746.16;;;3.81;100.00
70015;BME280;57358;51.094;6.760;2023-03-14T00:14:36;98113.50;;;5.70;100.00
70015;BME280;57358;51.094;6.760;2023-03-14T00:17:15;98698.66;;;9.41;100.00
70015;BME280;57358;51.094;6.760;2023-03-14T00:20:03;98582.66;;;8.40;100.00
70015;BME280;57358;51.094;6.760;2023-03-14T00:22:41;98445.59;;;7.88;100.00
70015;BME280;57358;51.094;6.760;2023-03-14T00:25:09;98507.81;;;8.50;100.00
70015;BME280;57358;51.094;6.760;2023-03-14T00:27:36;98236.31;;;6.92;100.00
70015;BME280;57358;51.094;6.760;2023-03-14T00:30:04;98454.19;;;8.67;100.00
70015;BME280;57358;51.094;6.760;2023-03-14T00:32:31;98594.38;;;9.46;100.00
70015;BME280;57358;51.094;6.760;2023-03-14T00:34:59;97962.09;;;5.87;100.00
70015;BME280;57358;51.094;6.760;2023-03-14T00:37:27;98136.28;;;6.93;100.00
70015;BME280;57358;51.094;6.760;2023-03-14T00:39:54;98252.69;;;7.83;100.00
70015;BME280;57358;51.094;6.760;2023-03-14T00:42:21;98233.63;;;7.71;100.00
70015;BME280;57358;51.094;6.760;2023-03-14T00:44:50;98562.47;;;9.73;100.00
70015;BME280;57358;51.094;6.760;2023-03-14T00:47:17;98531.81;;;9.10;100.00
70015;BME280;57358;51.094;6.760;2023-03-14T00:49:44;98227.25;;;6.51;100.00
70015;BME280;57358;51.094;6.760;2023-03-14T00:52:17;98148.50;;;5.42;100.00
70015;BME280;57358;51.094;6.760;2023-03-14T00:54:48;98773.63;;;9.19;100.00
70015;BME280;57358;51.094;6.760;2023-03-14T00:57:15;98398.94;;;6.67;100.00
70015;BME280;57358;51.094;6.760;2023-03-14T00:59:42;98350.22;;;6.32;100.00
70015;BME280;57358;51.094;6.760;2023-03-14T01:02:08;98571.28;;;7.83;100.00
70015;BME280;57358;51.094;6.760;2023-03-14T01:04:35;98686.91;;;8.56;100.00
70015;BME280;57358;51.094;6.760;2023-03-14T01:07:03;98390.13;;;6.57;100.00
70015;BME280;57358;51.094;6.760;2023-03-14T01:09:40;98312.13;;;5.94;100.00
70015;BME280;57358;51.094;6.760;2023-03-14T01:12:17;98636.81;;;7.91;100.00
70015;BME280;57358;51.094;6.760;2023-03-14T01:14:47;98296.75;;;5.91;100.00
70015;BME280;57358;51.094;6.760;2023-03-14T01:17:14;98191.88;;;5.04;100.00
70015;BME280;57358;51.094;6.760;2023-03-14T01:19:43;98249.66;;;5.33;100.00
70015;BME280;57358;51.094;6.760;2023-03-14T01:22:10;98249.47;;;5.60;100.00
70015;BME280;57358;51.094;6.760;2023-03-14T01:24:37;97902.34;;;3.48;100.00
70015;BME280;57358;51.094;6.760;2023-03-14T01:27:08;98382.28;;;6.46;100.00
70015;BME280;57358;51.094;6.760;2023-03-14T01:29:35;98479.41;;;7.20;100.00
70015;BME280;57358;51.094;6.760;2023-03-14T01:32:02;98142.88;;;4.74;100.00
70015;BME280;57358;51.094;6.760;2023-03-14T01:34:28;98218.97;;;5.26;100.00
70015;BME280;57358;51.094;6.760;2023-03-14T01:36:58;98736.13;;;8.62;100.00
70015;BME280;57358;51.094;6.760;2023-03-14T01:39:38;98179.41;;;5.09;100.00
70015;BME280;57358;51.094;6.760;2023-03-14T01:42:12;97985.94;;;3.90;100.00
70015;BME280;57358;51.094;6.760;2023-03-14T01:44:56;98728.47;;;8.59;100.00
70015;BME280;57358;51.094;6.760;2023-03-14T01:47:26;98569.72;;;7.81;100.00
70015;BME280;57358;51.094;6.760;2023-03-14T01:49:59;98387.69;;;6.43;100.00
70015;BME280;57358;51.094;6.760;2023-03-14T01:52:33;98742.88;;;8.65;100.00
70015;BME280;57358;51.094;6.760;2023-03-14T01:55:16;98748.94;;;8.65;100.00
70015;BME280;57358;51.094;6.760;2023-03-14T01:57:47;98296.88;;;6.14;100.00
70015;BME280;57358;51.094;6.760;2023-03-14T02:00:19;98361.91;;;6.27;100.00
70015;BME280;57358;51.094;6.760;2023-03-14T02:03:01;98689.03;;;8.51;100.00
70015;BME280;57358;51.094;6.760;2023-03-14T02:05:31;98477.63;;;6.96;100.00
70015;BME280;57358;51.094;6.760;2023-03-14T02:08:00;98554.69;;;7.49;100.00
70015;BME280;57358;51.094;6.760;2023-03-14T02:10:29;98180.00;;;5.13;100.00
70015;BME280;57358;51.094;6.760;2023-03-14T02:12:59;98129.41;;;4.93;100.00
70015;BME280;57358;51.094;6.760;2023-03-14T02:17:57;98661.72;;;8.66;100.00
70015;BME280;57358;51.094;6.760;2023-03-14T02:22:51;98653.63;;;8.58;100.00
70015;BME280;57358;51.094;6.760;2023-03-14T02:25:24;98679.53;;;8.61;100.00
70015;BME280;57358;51.094;6.760;2023-03-14T02:27:55;98611.03;;;8.22;100.00
70015;BME280;57358;51.094;6.760;2023-03-14T02:30:24;98691.91;;;8.82;100.00
70015;BME280;57358;51.094;6.760;2023-03-14T02:32:55;98657.31;;;8.67;100.00
70015;BME280;57358;51.094;6.760;2023-03-14T02:35:27;98529.06;;;8.01;100.00
70015;BME280;57358;51.094;6.760;2023-03-14T02:38:22;98673.34;;;8.96;100.00
70015;BME280;57358;51.094;6.760;2023-03-14T02:40:51;98643.16;;;8.81;100.00
70015;BME280;57358;51.094;6.760;2023-03-14T02:43:17;98585.63;;;8.47;100.00
70015;BME280;57358;51.094;6.760;2023-03-14T02:45:45;98670.50;;;8.99;100.00
70015;BME280;57358;51.094;6.760;2023-03-14T02:48:19;98664.19;;;9.02;100.00
70015;BME280;57358;51.094;6.760;2023-03-14T02:50:48;98675.38;;;9.04;100.00
70015;BME280;57358;51.094;6.760;2023-03-14T02:53:20;98558.03;;;8.31;100.00
70015;BME280;57358;51.094;6.760;2023-03-14T02:55:48;98675.38;;;9.04;100.00
70015;BME280;57358;51.094;6.760;2023-03-14T02:58:14;98625.44;;;8.73;100.00
70015;BME280;57358;51.094;6.760;2023-03-14T03:00:41;98651.69;;;9.05;100.00
70015;BME280;57358;51.094;6.760;2023-03-14T03:03:08;98585.41;;;8.61;100.00
70015;BME280;57358;51.094;6.760;2023-03-14T03:05:34;98587.19;;;8.61;100.00
70015;BME280;57358;51.094;6.760;2023-03-14T03:08:01;98656.00;;;8.95;100.00
70015;BME280;57358;51.094;6.760;2023-03-14T03:10:28;98624.16;;;8.78;100.00
70015;BME280;57358;51.094;6.760;2023-03-14T03:12:54;98606.31;;;8.61;100.00
70015;BME280;57358;51.094;6.760;2023-03-14T03:15:21;98604.78;;;8.58;100.00
70015;BME280;57358;51.094;6.760;2023-03-14T03:17:48;98634.59;;;8.90;100.00
70015;BME280;57358;51.094;6.760;2023-03-14T03:20:14;98659.44;;;9.07;100.00
70015;BME280;57358;51.094;6.760;2023-03-14T03:22:41;98650.75;;;9.06;100.00
70015;BME280;57358;51.094;6.760;2023-03-14T03:25:08;98645.88;;;9.02;100.00
70015;BME280;57358;51.094;6.760;2023-03-14T03:27:36;98561.88;;;8.50;100.00
70015;BME280;57358;51.094;6.760;2023-03-14T03:30:05;98625.09;;;8.77;100.00
70015;BME280;57358;51.094;6.760;2023-03-14T03:32:32;98601.56;;;8.44;100.00
70015;BME280;57358;51.094;6.760;2023-03-14T03:34:59;98678.22;;;8.89;100.00
70015;BME280;57358;51.094;6.760;2023-03-14T03:37:25;98669.31;;;8.81;100.00
70015;BME280;57358;51.094;6.760;2023-03-14T03:39:52;98660.16;;;8.75;100.00
70015;BME280;57358;51.094;6.760;2023-03-14T03:42:18;98629.81;;;8.50;100.00
70015;BME280;57358;51.094;6.760;2023-03-14T03:44:45;98658.97;;;8.68;100.00
70015;BME280;57358;51.094;6.760;2023-03-14T03:47:11;98645.88;;;8.68;100.00
70015;BME280;57358;51.094;6.760;2023-03-14T03:49:40;98492.22;;;7.70;100.00
70015;BME280;57358;51.094;6.760;2023-03-14T03:52:06;98621.88;;;8.51;100.00
70015;BME280;57358;51.094;6.760;2023-03-14T03:54:33;98643.75;;;8.62;100.00
70015;BME280;57358;51.094;6.760;2023-03-14T03:57:00;98623.91;;;8.59;100.00
70015;BME280;57358;51.094;6.760;2023-03-14T03:59:26;98566.00;;;8.18;100.00
70015;BME280;57358;51.094;6.760;2023-03-14T04:01:53;98629.38;;;8.56;100.00
70015;BME280;57358;51.094;6.760;2023-03-14T04:04:19;98618.94;;;8.56;100.00
70015;BME280;57358;51.094;6.760;2023-03-14T04:06:46;98615.47;;;8.55;100.00
70015;BME280;57358;51.094;6.760;2023-03-14T04:09:13;98577.06;;;8.22;100.00
70015;BME280;57358;51.094;6.760;2023-03-14T04:11:40;98530.47;;;8.05;100.00
70015;BME280;57358;51.094;6.760;2023-03-14T04:14:07;98613.69;;;8.56;100.00
70015;BME280;57358;51.094;6.760;2023-03-14T04:16:34;98615.34;;;8.57;100.00
70015;BME280;57358;51.094;6.760;2023-03-14T04:19:02;98564.44;;;8.27;100.00
70015;BME280;57358;51.094;6.760;2023-03-14T04:21:28;98570.78;;;8.36;100.00
70015;BME280;57358;51.094;6.760;2023-03-14T04:23:55;98588.00;;;8.50;100.00
70015;BME280;57358;51.094;6.760;2023-03-14T04:26:21;98613.09;;;8.64;100.00
70015;BME280;57358;51.094;6.760;2023-03-14T04:28:47;98587.91;;;8.63;100.00
70015;BME280;57358;51.094;6.760;2023-03-14T04:31:17;98587.78;;;8.64;100.00
70015;BME280;57358;51.094;6.760;2023-03-14T04:33:44;98572.69;;;8.56;100.00
70015;BME280;57358;51.094;6.760;2023-03-14T04:36:11;98583.59;;;8.73;100.00
70015;BME280;57358;51.094;6.760;2023-03-14T04:38:38;98521.44;;;8.31;100.00
70015;BME280;57358;51.094;6.760;2023-03-14T04:41:04;98536.09;;;8.45;100.00
70015;BME280;57358;51.094;6.760;2023-03-14T04:43:31;98568.25;;;8.79;100.00
70015;BME280;57358;51.094;6.760;2023-03-14T04:45:58;98520.63;;;8.53;100.00
70015;BME280;57358;51.094;6.760;2023-03-14T04:48:25;98557.69;;;8.81;100.00
70015;BME280;57358;51.094;6.760;2023-03-14T04:50:52;98554.25;;;8.81;100.00
70015;BME280;57358;51.094;6.760;2023-03-14T04:53:21;98531.78;;;8.67;100.00
70015;BME280;57358;51.094;6.760;2023-03-14T04:55:54;98480.50;;;8.32;100.00
70015;BME280;57358;51.094;6.760;2023-03-14T04:58:23;98556.38;;;8.87;100.00
70015;BME280;57358;51.094;6.760;2023-03-14T05:00:50;98548.75;;;8.84;100.00
70015;BME280;57358;51.094;6.760;2023-03-14T05:03:17;98530.59;;;8.71;100.00
70015;BME280;57358;51.094;6.760;2023-03-14T05:05:45;98535.81;;;8.82;100.00
70015;BME280;57358;51.094;6.760;2023-03-14T05:08:11;98546.28;;;8.82;100.00
70015;BME280;57358;51.094;6.760;2023-03-14T05:10:38;98534.53;;;8.65;100.00
70015;BME280;57358;51.094;6.760;2023-03-14T05:13:04;98538.56;;;8.81;100.00
70015;BME280;57358;51.094;6.760;2023-03-14T05:15:31;98538.56;;;8.81;100.00
70015;BME280;57358;51.094;6.760;2023-03-14T05:17:57;98501.50;;;8.53;100.00
70015;BME280;57358;51.094;6.760;2023-03-14T05:20:24;98460.28;;;8.34;100.00
70015;BME280;57358;51.094;6.760;2023-03-14T05:22:50;98464.81;;;8.32;100.00
70015;BME280;57358;51.094;6.760;2023-03-14T05:25:16;98539.38;;;8.81;100.00
70015;BME280;57358;51.094;6.760;2023-03-14T05:27:43;98449.47;;;8.27;100.00
70015;BME280;57358;51.094;6.760;2023-03-14T05:30:10;98537.34;;;8.85;100.00
70015;BME280;57358;51.094;6.760;2023-03-14T05:32:36;98534.03;;;8.83;100.00
70015;BME280;57358;51.094;6.760;2023-03-14T05:35:03;98458.03;;;8.41;100.00
70015;BME280;57358;51.094;6.760;2023-03-14T05:37:30;98480.22;;;8.57;100.00
70015;BME280;57358;51.094;6.760;2023-03-14T05:39:56;98523.31;;;8.86;100.00
70015;BME280;57358;51.094;6.760;2023-03-14T05:42:22;98493.66;;;8.64;100.00
70015;BME280;57358;51.094;6.760;2023-03-14T05:44:49;98373.53;;;7.85;100.00
70015;BME280;57358;51.094;6.760;2023-03-14T05:47:15;98528.53;;;8.86;100.00
70015;BME280;57358;51.094;6.760;2023-03-14T05:49:42;98510.38;;;8.84;100.00
70015;BME280;57358;51.094;6.760;2023-03-14T05:52:08;98516.31;;;8.86;100.00
70015;BME280;57358;51.094;6.760;2023-03-14T05:54:34;98451.38;;;8.48;100.00
70015;BME280;57358;51.094;6.760;2023-03-14T05:57:01;98522.00;;;8.91;100.00
70015;BME280;57358;51.094;6.760;2023-03-14T05:59:27;98458.75;;;8.54;100.00
70015;BME280;57358;51.094;6.760;2023-03-14T06:01:54;98520.91;;;8.94;100.00
70015;BME280;57358;51.094;6.760;2023-03-14T06:04:20;98504.50;;;8.92;100.00
70015;BME280;57358;51.094;6.760;2023-03-14T06:06:47;98430.69;;;8.56;100.00
70015;BME280;57358;51.094;6.760;2023-03-14T06:09:13;98456.28;;;8.73;100.00
70015;BME280;57358;51.094;6.760;2023-03-14T06:11:40;98494.84;;;9.04;100.00
70015;BME280;57358;51.094;6.760;2023-03-14T06:14:06;98512.91;;;9.07;100.00
70015;BME280;57358;51.094;6.760;2023-03-14T06:16:33;98417.97;;;8.51;100.00
70015;BME280;57358;51.094;6.760;2023-03-14T06:18:59;98437.66;;;8.67;100.00
70015;BME280;57358;51.094;6.760;2023-03-14T06:21:26;98436.56;;;8.69;100.00
70015;BME280;57358;51.094;6.760;2023-03-14T06:23:52;98436.97;;;8.65;100.00
70015;BME280;57358;51.094;6.760;2023-03-14T06:26:19;98508.81;;;9.14;100.00
70015;BME280;57358;51.094;6.760;2023-03-14T06:28:45;98508.59;;;9.17;100.00
70015;BME280;57358;51.094;6.760;2023-03-14T06:31:12;98515.22;;;9.21;100.00
70015;BME280;57358;51.094;6.760;2023-03-14T06:33:38;98511.28;;;9.27;100.00
70015;BME280;57358;51.094;6.760;2023-03-14T06:36:05;98500.69;;;9.28;100.00
70015;BME280;57358;51.094;6.760;2023-03-14T06:38:32;98342.09;;;8.30;100.00
70015;BME280;57358;51.094;6.760;2023-03-14T06:41:05;98471.88;;;9.07;100.00
70015;BME280;57358;51.094;6.760;2023-03-14T06:43:32;98523.69;;;9.46;100.00
70015;BME280;57358;51.094;6.760;2023-03-14T06:45:58;98518.44;;;9.46;100.00
70015;BME280;57358;51.094;6.760;2023-03-14T06:48:25;98490.28;;;9.38;100.00
70015;BME280;57358;51.094;6.760;2023-03-14T06:50:51;98521.78;;;9.69;100.00
70015;BME280;57358;51.094;6.760;2023-03-14T06:53:18;98529.88;;;9.66;100.00
70015;BME280;57358;51.094;6.760;2023-03-14T06:55:44;98512.06;;;9.59;100.00
70015;BME280;57358;51.094;6.760;2023-03-14T06:58:12;98505.69;;;9.52;100.00
70015;BME280;57358;51.094;6.760;2023-03-14T07:00:38;98479.25;;;9.34;100.00
70015;BME280;57358;51.094;6.760;2023-03-14T07:03:05;98529.78;;;9.67;100.00
70015;BME280;57358;51.094;6.760;2023-03-14T07:05:31;98521.91;;;9.67;100.00
70015;BME280;57358;51.094;6.760;2023-03-14T07:07:57;98499.88;;;9.49;100.00
70015;BME280;57358;51.094;6.760;2023-03-14T07:10:24;98535.50;;;9.82;100.00
70015;BME280;57358;51.094;6.760;2023-03-14T07:12:50;98428.28;;;9.17;100.00
70015;BME280;57358;51.094;6.760;2023-03-14T07:15:18;98538.06;;;9.93;100.00
70015;BME280;57358;51.094;6.760;2023-03-14T07:17:46;98544.47;;;10.01;100.00
70015;BME280;57358;51.094;6.760;2023-03-14T07:20:14;98527.84;;;9.90;100.00
70015;BME280;57358;51.094;6.760;2023-03-14T07:22:40;98543.94;;;10.07;100.00
70015;BME280;57358;51.094;6.760;2023-03-14T07:25:07;98555.44;;;10.15;100.00
70015;BME280;57358;51.094;6.760;2023-03-14T07:27:36;98519.84;;;9.92;100.00
70015;BME280;57358;51.094;6.760;2023-03-14T07:30:02;98538.75;;;10.16;100.00
70015;BME280;57358;51.094;6.760;2023-03-14T07:32:29;98570.72;;;10.31;100.00
70015;BME280;57358;51.094;6.760;2023-03-14T07:34:55;98571.16;;;10.36;100.00
70015;BME280;57358;51.094;6.760;2023-03-14T07:37:22;98573.91;;;10.35;100.00
70015;BME280;57358;51.094;6.760;2023-03-14T07:39:48;98573.22;;;10.33;100.00
70015;BME280;57358;51.094;6.760;2023-03-14T07:42:15;98501.44;;;9.82;100.00
70015;BME280;57358;51.094;6.760;2023-03-14T07:44:42;98569.41;;;10.26;100.00
70015;BME280;57358;51.094;6.760;2023-03-14T07:47:08;98526.75;;;9.93;100.00
70015;BME280;57358;51.094;6.760;2023-03-14T07:49:34;98517.09;;;9.93;100.00
70015;BME280;57358;51.094;6.760;2023-03-14T07:52:01;98581.66;;;10.36;100.00
70015;BME280;57358;51.094;6.760;2023-03-14T07:54:27;98574.31;;;10.30;100.00
70015;BME280;57358;51.094;6.760;2023-03-14T07:56:54;98588.00;;;10.44;100.00
70015;BME280;57358;51.094;6.760;2023-03-14T07:59:20;98545.25;;;10.22;100.00
70015;BME280;57358;51.094;6.760;2023-03-14T08:01:47;98540.31;;;10.29;100.00
70015;BME280;57358;51.094;6.760;2023-03-14T08:04:15;98602.13;;;10.83;100.00
70015;BME280;57358;51.094;6.760;2023-03-14T08:06:42;98603.81;;;10.94;100.00
70015;BME280;57358;51.094;6.760;2023-03-14T08:09:08;98587.66;;;10.98;100.00
70015;BME280;57358;51.094;6.760;2023-03-14T08:11:35;98546.16;;;10.73;100.00
70015;BME280;57358;51.094;6.760;2023-03-14T08:14:02;98525.16;;;10.63;100.00
70015;BME280;57358;51.094;6.760;2023-03-14T08:16:28;98544.63;;;10.61;100.00
70015;BME280;57358;51.094;6.760;2023-03-14T08:18:57;98604.25;;;10.99;100.00
70015;BME280;57358;51.094;6.760;2023-03-14T08:21:24;98612.69;;;11.03;100.00
70015;BME280;57358;51.094;6.760;2023-03-14T08:23:50;98607.53;;;10.91;100.00
70015;BME280;57358;51.094;6.760;2023-03-14T08:26:16;98572.38;;;10.63;100.00
70015;BME280;57358;51.094;6.760;2023-03-14T08:28:43;98616.50;;;10.89;100.00
70015;BME280;57358;51.094;6.760;2023-03-14T08:31:09;98620.19;;;10.76;100.00
70015;BME280;57358;51.094;6.760;2023-03-14T08:33:36;98603.88;;;10.73;100.00
70015;BME280;57358;51.094;6.760;2023-03-14T08:36:03;98608.47;;;10.81;100.00
70015;BME280;57358;51.094;6.760;2023-03-14T08:38:30;98606.66;;;10.81;100.00
70015;BME280;57358;51.094;6.760;2023-03-14T08:40:58;98613.34;;;10.95;100.00
70015;BME280;57358;51.094;6.760;2023-03-14T08:43:25;98622.78;;;11.07;100.00
70015;BME280;57358;51.094;6.760;2023-03-14T08:45:52;98632.97;;;11.10;100.00
70015;BME280;57358;51.094;6.760;2023-03-14T08:48:19;98570.97;;;10.59;100.00
70015;BME280;57358;51.094;6.760;2023-03-14T08:50:45;98635.69;;;10.89;100.00
70015;BME280;57358;51.094;6.760;2023-03-14T08:53:12;98443.16;;;9.59;100.00
70015;BME280;57358;51.094;6.760;2023-03-14T08:55:39;98654.31;;;10.76;100.00
70015;BME280;57358;51.094;6.760;2023-03-14T08:58:05;98639.16;;;10.59;100.00
70015;BME280;57358;51.094;6.760;2023-03-14T09:00:31;98576.22;;;10.07;100.00
70015;BME280;57358;51.094;6.760;2023-03-14T09:02:58;98628.00;;;10.36;100.00
70015;BME280;57358;51.094;6.760;2023-03-14T09:05:24;98669.75;;;10.49;100.00
70015;BME280;57358;51.094;6.760;2023-03-14T09:07:51;98671.09;;;10.43;100.00
70015;BME280;57358;51.094;6.760;2023-03-14T09:10:17;98692.31;;;10.40;100.00
70015;BME280;57358;51.094;6.760;2023-03-14T09:12:46;98684.84;;;10.35;100.00
70015;BME280;57358;51.094;6.760;2023-03-14T09:15:13;98681.28;;;10.36;100.00
70015;BME280;57358;51.094;6.760;2023-03-14T09:17:39;98656.03;;;10.03;100.00
70015;BME280;57358;51.094;6.760;2023-03-14T09:20:09;98684.13;;;9.80;100.00
70015;BME280;57358;51.094;6.760;2023-03-14T09:22:36;98725.31;;;9.89;100.00
70015;BME280;57358;51.094;6.760;2023-03-14T09:25:03;98700.78;;;9.35;100.00
70015;BME280;57358;51.094;6.760;2023-03-14T09:27:30;98727.69;;;9.04;100.00
70015;BME280;57358;51.094;6.760;2023-03-14T09:29:56;98673.13;;;8.54;100.00
70015;BME280;57358;51.094;6.760;2023-03-14T09:32:23;98748.25;;;8.74;100.00
70015;BME280;57358;51.094;6.760;2023-03-14T09:34:49;98615.91;;;7.80;100.00
70015;BME280;57358;51.094;6.760;2023-03-14T09:37:16;98727.44;;;8.26;100.00
70015;BME280;57358;51.094;6.760;2023-03-14T09:39:43;98739.63;;;8.14;100.00
70015;BME280;57358;51.094;6.760;2023-03-14T09:42:14;98776.91;;;8.16;100.00
70015;BME280;57358;51.094;6.760;2023-03-14T09:47:19;98805.28;;;8.10;100.00
70015;BME280;57358;51.094;6.760;2023-03-14T09:49:46;98838.28;;;8.11;100.00
70015;BME280;57358;51.094;6.760;2023-03-14T09:52:23;98842.41;;;8.26;100.00
70015;BME280;57358;51.094;6.760;2023-03-14T09:54:57;98845.84;;;8.27;100.00
70015;BME280;57358;51.094;6.760;2023-03-14T09:57:25;98836.00;;;8.06;100.00
70015;BME280;57358;51.094;6.760;2023-03-14T09:59:55;98860.63;;;8.15;100.00
70015;BME280;57358;51.094;6.760;2023-03-14T10:02:26;98885.56;;;7.95;100.00
70015;BME280;57358;51.094;6.760;2023-03-14T10:04:54;98845.41;;;7.72;100.00
70015;BME280;57358;51.094;6.760;2023-03-14T10:07:29;98913.31;;;8.09;100.00
70015;BME280;57358;51.094;6.760;2023-03-14T10:09:57;98807.56;;;7.41;100.00
70015;BME280;57358;51.094;6.760;2023-03-14T10:12:37;98916.91;;;7.95;100.00
70015;BME280;57358;51.094;6.760;2023-03-14T10:15:11;98926.72;;;7.91;100.00
70015;BME280;57358;51.094;6.760;2023-03-14T10:17:48;98928.22;;;7.83;100.00
70015;BME280;57358;51.094;6.760;2023-03-14T10:20:37;98945.88;;;7.92;100.00
70015;BME280;57358;51.094;6.760;2023-03-14T10:25:42;98957.44;;;8.01;100.00
70015;BME280;57358;51.094;6.760;2023-03-14T10:28:39;98990.03;;;7.95;100.00
70015;BME280;57358;51.094;6.760;2023-03-14T10:31:06;98987.22;;;7.98;100.00
70015;BME280;57358;51.094;6.760;2023-03-14T10:33:35;98996.41;;;7.65;100.00
70015;BME280;57358;51.094;6.760;2023-03-14T10:36:17;98957.44;;;7.24;100.00
70015;BME280;57358;51.094;6.760;2023-03-14T10:38:44;99021.03;;;7.48;100.00
70015;BME280;57358;51.094;6.760;2023-03-14T10:41:24;99015.84;;;7.21;100.00
70015;BME280;57358;51.094;6.760;2023-03-14T10:43:57;98982.81;;;6.94;100.00
70015;BME280;57358;51.094;6.760;2023-03-14T10:46:26;99061.66;;;7.52;100.00
70015;BME280;57358;51.094;6.760;2023-03-14T10:48:55;99083.75;;;7.74;100.00
70015;BME280;57358;51.094;6.760;2023-03-14T10:51:26;99087.75;;;7.92;100.00
70015;BME280;57358;51.094;6.760;2023-03-14T10:54:09;99086.81;;;8.19;100.00
70015;BME280;57358;51.094;6.760;2023-03-14T10:56:38;99085.16;;;8.18;100.00
70015;BME280;57358;51.094;6.760;2023-03-14T10:59:12;99040.53;;;8.08;100.00
70015;BME280;57358;51.094;6.760;2023-03-14T11:02:03;99035.50;;;7.92;100.00
70015;BME280;57358;51.094;6.760;2023-03-14T11:07:28;99101.53;;;8.33;100.00
70015;BME280;57358;51.094;6.760;2023-03-14T11:10:19;99104.69;;;8.25;100.00
70015;BME280;57358;51.094;6.760;2023-03-14T11:13:05;99132.19;;;8.31;100.00
70015;BME280;57358;51.094;6.760;2023-03-14T11:20:53;99176.28;;;6.72;100.00
70015;BME280;57358;51.094;6.760;2023-03-14T11:26:30;99184.16;;;6.42;100.00
70015;BME280;57358;51.094;6.760;2023-03-14T11:29:12;99165.34;;;6.23;100.00
70015;BME280;57358;51.094;6.760;2023-03-14T11:31:43;99148.00;;;6.07;100.00
70015;BME280;57358;51.094;6.760;2023-03-14T11:34:17;99225.22;;;6.53;100.00
70015;BME280;57358;51.094;6.760;2023-03-14T11:36:51;99234.91;;;6.65;100.00
70015;BME280;57358;51.094;6.760;2023-03-14T11:39:19;99241.00;;;6.66;100.00
70015;BME280;57358;51.094;6.760;2023-03-14T11:41:50;99122.16;;;5.88;100.00
70015;BME280;57358;51.094;6.760;2023-03-14T11:44:18;99256.03;;;6.61;100.00
70015;BME280;57358;51.094;6.760;2023-03-14T11:47:08;99205.06;;;6.26;100.00
70015;BME280;57358;51.094;6.760;2023-03-14T11:50:02;99140.50;;;5.71;100.00
70015;BME280;57358;51.094;6.760;2023-03-14T11:52:35;99292.47;;;6.76;100.00
70015;BME280;57358;51.094;6.760;2023-03-14T11:55:17;99289.03;;;6.62;100.00
70015;BME280;57358;51.094;6.760;2023-03-14T11:57:45;99308.28;;;6.73;100.00
70015;BME280;57358;51.094;6.760;2023-03-14T12:00:19;99218.84;;;6.28;100.00
70015;BME280;57358;51.094;6.760;2023-03-14T12:03:24;99325.28;;;6.81;100.00
70015;BME280;57358;51.094;6.760;2023-03-14T12:08:52;99255.31;;;6.28;100.00
70015;BME280;57358;51.094;6.760;2023-03-14T12:14:17;99289.94;;;6.61;100.00
70015;BME280;57358;51.094;6.760;2023-03-14T12:16:46;99339.81;;;6.99;100.00
70015;BME280;57358;51.094;6.760;2023-03-14T12:21:48;99359.28;;;6.93;100.00
70015;BME280;57358;51.094;6.760;2023-03-14T12:24:23;99292.81;;;6.56;100.00
70015;BME280;57358;51.094;6.760;2023-03-14T12:26:55;99329.88;;;6.61;100.00
70015;BME280;57358;51.094;6.760;2023-03-14T12:29:22;99381.16;;;6.91;100.00
70015;BME280;57358;51.094;6.760;2023-03-14T12:32:22;99380.09;;;6.79;100.00
70015;BME280;57358;51.094;6.760;2023-03-14T12:34:49;99398.91;;;6.70;100.00
70015;BME280;57358;51.094;6.760;2023-03-14T12:37:34;99287.97;;;5.88;100.00
70015;BME280;57358;51.094;6.760;2023-03-14T12:40:17;99414.72;;;6.51;100.00
70015;BME280;57358;51.094;6.760;2023-03-14T12:42:56;99438.34;;;6.64;100.00
70015;BME280;57358;51.094;6.760;2023-03-14T12:48:10;99437.63;;;6.46;100.00
70015;BME280;57358;51.094;6.760;2023-03-14T12:50:43;99454.84;;;6.64;100.00
70015;BME280;57358;51.094;6.760;2023-03-14T13:01:33;99483.66;;;7.82;100.00
70015;BME280;57358;51.094;6.760;2023-03-14T13:04:09;99403.88;;;7.33;100.00
70015;BME280;57358;51.094;6.760;2023-03-14T13:06:49;99490.94;;;8.34;100.00
70015;BME280;57358;51.094;6.760;2023-03-14T13:12:03;99416.56;;;7.97;100.00
70015;BME280;57358;51.094;6.760;2023-03-14T13:14:35;99420.19;;;7.23;100.00
70015;BME280;57358;51.094;6.760;2023-03-14T13:17:03;99400.19;;;6.31;100.00
70015;BME280;57358;51.094;6.760;2023-03-14T13:19:52;99484.69;;;6.43;100.00
70015;BME280;57358;51.094;6.760;2023-03-14T13:22:24;99536.00;;;6.74;100.00
70015;BME280;57358;51.094;6.760;2023-03-14T13:25:03;99541.44;;;6.69;100.00
70015;BME280;57358;51.094;6.760;2023-03-14T13:27:33;99566.94;;;6.64;100.00
70015;BME280;57358;51.094;6.760;2023-03-14T13:30:16;99542.44;;;6.51;100.00
70015;BME280;57358;51.094;6.760;2023-03-14T13:32:45;99500.56;;;6.22;100.00
70015;BME280;57358;51.094;6.760;2023-03-14T13:37:45;99550.25;;;6.51;100.00
70015;BME280;57358;51.094;6.760;2023-03-14T13:40:30;99543.59;;;6.45;100.00
70015;BME280;57358;51.094;6.760;2023-03-14T13:43:17;99556.47;;;6.48;100.00
70015;BME280;57358;51.094;6.760;2023-03-14T13:45:48;99574.06;;;6.61;100.00
70015;BME280;57358;51.094;6.760;2023-03-14T13:48:15;99588.13;;;6.58;100.00
70015;BME280;57358;51.094;6.760;2023-03-14T13:50:51;99540.13;;;6.29;100.00
70015;BME280;57358;51.094;6.760;2023-03-14T13:53:18;99579.47;;;6.57;100.00
70015;BME280;57358;51.094;6.760;2023-03-14T13:55:44;99606.19;;;6.77;100.00
70015;BME280;57358;51.094;6.760;2023-03-14T13:58:31;99596.59;;;6.77;100.00
70015;BME280;57358;51.094;6.760;2023-03-14T14:01:05;99567.81;;;6.47;100.00